createdAt,value
2018-09-22T00:00:49.723Z,12.67
2018-09-22T00:02:49.832Z,12.66
2018-09-22T00:04:50.294Z,12.66
2018-09-22T00:06:50.362Z,12.64
2018-09-22T00:08:50.440Z,12.63
2018-09-22T00:10:50.439Z,12.59
2018-09-22T00:12:50.519Z,12.56
2018-09-22T00:14:50.524Z,12.52
2018-09-22T00:16:49.765Z,12.48
2018-09-22T00:18:49.863Z,12.46
2018-09-22T00:20:49.886Z,12.43
2018-09-22T00:22:49.962Z,12.43
2018-09-22T00:24:49.975Z,12.41
2018-09-22T00:26:50.317Z,12.41
2018-09-22T00:28:50.253Z,12.42
2018-09-22T00:30:50.327Z,12.40
2018-09-22T00:32:50.295Z,12.38
2018-09-22T00:34:50.586Z,12.36
2018-09-22T00:36:49.875Z,12.36
2018-09-22T00:38:49.988Z,12.36
2018-09-22T00:40:50.008Z,12.35
2018-09-22T00:42:50.022Z,12.32
2018-09-22T00:44:50.050Z,12.31
2018-09-22T00:46:50.221Z,12.31
2018-09-22T00:48:50.294Z,12.33
2018-09-22T00:50:50.215Z,12.32
2018-09-22T00:52:50.250Z,12.29
2018-09-22T00:54:50.233Z,12.27
2018-09-22T00:56:50.316Z,12.23
2018-09-22T00:58:50.359Z,12.19
2018-09-22T01:00:50.421Z,12.15
2018-09-22T01:02:50.379Z,12.13
2018-09-22T01:04:50.685Z,12.10
2018-09-22T01:06:49.931Z,12.06
2018-09-22T01:08:49.929Z,12.05
2018-09-22T01:10:49.909Z,12.04
2018-09-22T01:12:49.898Z,12.03
2018-09-22T01:14:49.861Z,11.99
2018-09-22T01:16:50.209Z,11.97
2018-09-22T01:18:50.167Z,11.96
2018-09-22T01:20:50.138Z,11.94
2018-09-22T01:22:50.199Z,11.88
2018-09-22T01:24:50.155Z,11.86
2018-09-22T01:26:50.312Z,11.87
2018-09-22T01:28:50.540Z,11.89
2018-09-22T01:30:50.492Z,11.85
2018-09-22T01:32:50.538Z,11.84
2018-09-22T01:34:49.778Z,11.87
2018-09-22T01:36:50.126Z,11.84
2018-09-22T01:38:50.095Z,11.81
2018-09-22T01:40:50.101Z,11.78
2018-09-22T01:42:50.155Z,11.77
2018-09-22T01:44:50.221Z,11.73
2018-09-22T01:46:50.525Z,11.65
2018-09-22T01:48:50.617Z,11.61
2018-09-22T01:50:50.547Z,11.60
2018-09-22T01:52:50.688Z,11.57
2018-09-22T01:54:50.618Z,11.53
2018-09-22T01:56:49.861Z,11.55
2018-09-22T01:58:49.984Z,11.55
2018-09-22T02:00:49.987Z,11.56
2018-09-22T02:02:50.005Z,11.57
2018-09-22T02:04:50.341Z,11.55
2018-09-22T02:06:50.509Z,11.57
2018-09-22T02:08:49.884Z,11.60
2018-09-22T02:10:49.902Z,11.61
2018-09-22T02:12:49.971Z,11.62
2018-09-22T02:14:49.936Z,11.62
2018-09-22T02:16:50.308Z,11.63
2018-09-22T02:18:50.248Z,11.62
2018-09-22T02:20:50.333Z,11.63
2018-09-22T02:22:50.374Z,11.60
2018-09-22T02:24:50.370Z,11.59
2018-09-22T02:26:50.453Z,11.58
2018-09-22T02:28:50.494Z,11.59
2018-09-22T02:30:50.491Z,11.59
2018-09-22T02:32:50.528Z,11.56
2018-09-22T02:34:49.990Z,11.53
2018-09-22T02:36:50.312Z,11.53
2018-09-22T02:38:50.349Z,11.55
2018-09-22T02:40:50.359Z,11.57
2018-09-22T02:42:50.365Z,11.56
2018-09-22T02:44:50.488Z,11.54
2018-09-22T02:46:50.672Z,11.53
2018-09-22T02:48:49.696Z,11.51
2018-09-22T02:50:50.693Z,11.49
2018-09-22T02:52:49.836Z,11.47
2018-09-22T02:54:49.928Z,11.46
2018-09-22T02:56:50.171Z,11.44
2018-09-22T02:58:50.172Z,11.40
2018-09-22T03:00:50.289Z,11.38
2018-09-22T03:02:50.340Z,11.36
2018-09-22T03:04:49.719Z,11.37
2018-09-22T03:06:50.570Z,11.34
2018-09-22T03:08:50.289Z,11.30
2018-09-22T03:10:50.435Z,11.28
2018-09-22T03:12:50.366Z,11.26
2018-09-22T03:14:50.361Z,11.21
2018-09-22T03:16:50.473Z,11.20
2018-09-22T03:18:50.485Z,11.19
2018-09-22T03:20:50.596Z,11.17
2018-09-22T03:22:50.693Z,11.17
2018-09-22T03:24:49.746Z,11.16
2018-09-22T03:26:49.996Z,11.17
2018-09-22T03:28:50.031Z,11.17
2018-09-22T03:30:50.029Z,11.13
2018-09-22T03:32:50.141Z,11.09
2018-09-22T03:34:50.576Z,11.05
2018-09-22T03:36:49.833Z,11.02
2018-09-22T03:38:49.887Z,11.02
2018-09-22T03:40:49.893Z,10.98
2018-09-22T03:42:50.009Z,10.98
2018-09-22T03:44:50.026Z,11.01
2018-09-22T03:46:50.270Z,11.02
2018-09-22T03:48:50.227Z,11.05
2018-09-22T03:50:50.148Z,11.04
2018-09-22T03:52:50.109Z,11.04
2018-09-22T03:54:50.175Z,11.04
2018-09-22T03:56:50.349Z,11.04
2018-09-22T04:00:49.994Z,11.07
2018-09-22T04:02:50.002Z,11.09
2018-09-22T04:04:50.284Z,11.08
2018-09-22T04:06:50.469Z,11.06
2018-09-22T04:08:50.457Z,11.03
2018-09-22T04:10:50.389Z,11.04
2018-09-22T04:12:50.414Z,11.06
2018-09-22T04:14:50.436Z,11.05
2018-09-22T04:16:50.649Z,11.03
2018-09-22T04:18:50.683Z,10.98
2018-09-22T04:20:49.760Z,10.97
2018-09-22T04:22:49.758Z,10.99
2018-09-22T04:24:49.746Z,11.00
2018-09-22T04:26:50.481Z,10.98
2018-09-22T04:28:50.461Z,10.98
2018-09-22T04:30:50.469Z,10.97
2018-09-22T04:32:50.457Z,10.98
2018-09-22T04:34:50.007Z,10.99
2018-09-22T04:36:50.136Z,10.98
2018-09-22T04:38:50.205Z,10.97
2018-09-22T04:40:50.303Z,10.94
2018-09-22T04:42:50.496Z,10.92
2018-09-22T04:44:50.454Z,10.87
2018-09-22T04:46:49.706Z,10.85
2018-09-22T04:48:49.772Z,10.79
2018-09-22T04:50:49.784Z,10.77
2018-09-22T04:52:50.006Z,10.74
2018-09-22T04:54:49.962Z,10.73
2018-09-22T04:56:50.106Z,10.73
2018-09-22T04:58:50.070Z,10.71
2018-09-22T05:00:50.062Z,10.72
2018-09-22T05:02:50.124Z,10.72
2018-09-22T05:04:50.490Z,10.71
2018-09-22T05:06:50.647Z,10.71
2018-09-22T05:08:50.690Z,10.75
2018-09-22T05:10:49.755Z,10.76
2018-09-22T05:12:49.717Z,10.78
2018-09-22T05:14:49.792Z,10.77
2018-09-22T05:16:50.025Z,10.75
2018-09-22T05:18:50.011Z,10.76
2018-09-22T05:20:49.963Z,10.80
2018-09-22T05:22:49.995Z,10.80
2018-09-22T05:24:50.395Z,10.82
2018-09-22T05:26:49.854Z,10.79
2018-09-22T05:28:49.898Z,10.78
2018-09-22T05:30:50.027Z,10.78
2018-09-22T05:32:50.090Z,10.78
2018-09-22T05:34:50.297Z,10.76
2018-09-22T05:36:49.873Z,10.77
2018-09-22T05:38:49.958Z,10.79
2018-09-22T05:40:50.033Z,10.80
2018-09-22T05:42:50.028Z,10.85
2018-09-22T05:44:50.076Z,10.85
2018-09-22T05:46:50.300Z,10.84
2018-09-22T05:48:50.517Z,10.86
2018-09-22T05:50:50.504Z,10.89
2018-09-22T05:52:50.599Z,10.94
2018-09-22T05:54:50.714Z,10.98
2018-09-22T05:56:50.137Z,11.03
2018-09-22T05:58:50.300Z,11.08
2018-09-22T06:00:50.268Z,11.13
2018-09-22T06:02:50.356Z,11.15
2018-09-22T06:04:49.779Z,11.21
2018-09-22T06:06:50.028Z,11.25
2018-09-22T06:08:49.998Z,11.29
2018-09-22T06:10:50.162Z,11.35
2018-09-22T06:12:50.110Z,11.41
2018-09-22T06:14:50.175Z,11.45
2018-09-22T06:16:50.348Z,11.51
2018-09-22T06:18:50.306Z,11.54
2018-09-22T06:20:50.350Z,11.57
2018-09-22T06:22:50.365Z,11.60
2018-09-22T06:24:50.419Z,11.63
2018-09-22T06:26:50.623Z,11.72
2018-09-22T06:28:50.868Z,11.75
2018-09-22T06:30:50.103Z,11.79
2018-09-22T06:32:50.131Z,11.86
2018-09-22T06:34:50.461Z,11.87
2018-09-22T06:36:50.624Z,11.87
2018-09-22T06:38:50.811Z,11.86
2018-09-22T06:40:49.975Z,11.86
2018-09-22T06:42:49.953Z,11.91
2018-09-22T06:44:50.000Z,12.00
2018-09-22T06:46:50.180Z,12.03
2018-09-22T06:48:50.229Z,12.11
2018-09-22T06:50:50.242Z,12.14
2018-09-22T06:52:50.284Z,12.21
2018-09-22T06:54:50.615Z,12.28
2018-09-22T06:56:49.782Z,12.29
2018-09-22T06:58:49.845Z,12.43
2018-09-22T07:00:50.011Z,12.49
2018-09-22T07:02:50.042Z,12.60
2018-09-22T07:04:50.346Z,12.61
2018-09-22T07:06:50.467Z,12.73
2018-09-22T07:08:50.383Z,12.79
2018-09-22T07:10:50.477Z,12.85
2018-09-22T07:12:49.708Z,12.87
2018-09-22T07:14:49.757Z,12.93
2018-09-22T07:16:50.027Z,13.03
2018-09-22T07:18:50.013Z,13.12
2018-09-22T07:20:50.096Z,13.29
2018-09-22T07:22:50.219Z,13.4
2018-09-22T07:24:50.106Z,13.4
2018-09-22T07:26:50.293Z,13.5
2018-09-22T07:28:50.254Z,13.6
2018-09-22T07:30:50.729Z,13.67
2018-09-22T07:32:49.949Z,13.65
2018-09-22T07:34:50.462Z,13.67
2018-09-22T07:36:50.719Z,13.67
2018-09-22T07:38:49.734Z,13.88
2018-09-22T07:40:49.822Z,13.90
2018-09-22T07:42:49.781Z,13.90
2018-09-22T07:44:49.862Z,13.42
2018-09-22T07:46:50.064Z,13.55
2018-09-22T07:48:50.237Z,13.48
2018-09-22T07:50:50.252Z,13.42
2018-09-22T07:52:50.259Z,13.49
2018-09-22T07:54:50.288Z,13.62
2018-09-22T07:56:50.443Z,13.62
2018-09-22T07:58:50.470Z,13.63
2018-09-22T08:00:50.539Z,13.66
2018-09-22T08:02:50.656Z,13.68
2018-09-22T08:04:49.881Z,13.62
2018-09-22T08:06:50.204Z,13.60
2018-09-22T08:08:50.224Z,13.72
2018-09-22T08:10:50.323Z,13.75
2018-09-22T08:12:50.556Z,13.81
2018-09-22T08:14:50.600Z,13.82
2018-09-22T08:16:49.791Z,13.67
2018-09-22T08:18:49.828Z,13.64
2018-09-22T08:20:49.835Z,13.71
2018-09-22T08:22:49.978Z,13.68
2018-09-22T08:24:49.939Z,13.74
2018-09-22T08:26:50.173Z,13.75
2018-09-22T08:28:50.200Z,13.77
2018-09-22T08:30:50.245Z,13.85
2018-09-22T08:32:50.209Z,13.99
2018-09-22T08:34:50.536Z,14.10
2018-09-22T08:36:50.851Z,14.08
2018-09-22T08:38:50.069Z,14.09
2018-09-22T08:40:50.296Z,14.24
2018-09-22T08:42:50.350Z,14.18
2018-09-22T08:44:50.583Z,14.10
2018-09-22T08:46:49.896Z,14.30
2018-09-22T08:48:49.945Z,14.45
2018-09-22T08:50:49.969Z,14.45
2018-09-22T08:52:49.948Z,14.57
2018-09-22T08:54:49.910Z,14.80
2018-09-22T08:56:50.071Z,14.80
2018-09-22T08:58:50.064Z,14.47
2018-09-22T09:00:50.073Z,14.60
2018-09-22T09:02:50.123Z,14.64
2018-09-22T09:04:50.509Z,14.63
2018-09-22T09:06:49.768Z,14.70
2018-09-22T09:08:49.803Z,14.83
2018-09-22T09:10:49.755Z,14.99
2018-09-22T09:12:49.976Z,15.11
2018-09-22T09:14:50.118Z,15.14
2018-09-22T09:16:50.321Z,14.98
2018-09-22T09:18:50.272Z,15.03
2018-09-22T09:20:50.272Z,14.96
2018-09-22T09:22:50.343Z,14.97
2018-09-22T09:24:50.374Z,15.07
2018-09-22T09:26:50.594Z,15.33
2018-09-22T09:28:50.574Z,15.4
2018-09-22T09:30:50.527Z,15.5
2018-09-22T09:32:50.517Z,15.6
2018-09-22T09:34:50.031Z,15.7
2018-09-22T09:36:50.220Z,15.7
2018-09-22T09:38:50.160Z,15.8
2018-09-22T09:40:50.178Z,15.9
2018-09-22T09:42:50.304Z,15.73
2018-09-22T09:44:50.297Z,15.9
2018-09-22T09:46:50.548Z,15.9
2018-09-22T09:48:50.660Z,16.0
2018-09-22T09:50:49.729Z,16.0
2018-09-22T09:52:49.712Z,15.87
2018-09-22T09:54:49.965Z,15.75
2018-09-22T09:56:50.285Z,15.69
2018-09-22T09:58:50.247Z,15.78
2018-09-22T10:00:50.244Z,15.83
2018-09-22T10:02:50.246Z,15.92
2018-09-22T10:04:50.569Z,16.06
2018-09-22T10:06:49.825Z,16.18
2018-09-22T10:08:49.769Z,16.27
2018-09-22T10:10:49.884Z,16.27
2018-09-22T10:12:49.843Z,16.25
2018-09-22T10:14:49.837Z,16.33
2018-09-22T10:16:50.055Z,16.35
2018-09-22T10:18:50.027Z,16.00
2018-09-22T10:20:50.065Z,15.69
2018-09-22T10:22:50.085Z,15.57
2018-09-22T10:24:50.200Z,15.71
2018-09-22T10:26:50.328Z,15.94
2018-09-22T10:28:50.771Z,15.97
2018-09-22T10:30:50.091Z,16.19
2018-09-22T10:32:50.099Z,16.44
2018-09-22T10:34:50.405Z,16.59
2018-09-22T10:36:49.719Z,16.61
2018-09-22T10:38:49.795Z,16.55
2018-09-22T10:40:49.784Z,16.9
2018-09-22T10:42:49.889Z,16.9
2018-09-22T10:44:49.895Z,17.0
2018-09-22T10:46:50.040Z,17.1
2018-09-22T10:48:50.172Z,17.3
2018-09-22T10:50:50.169Z,17.4
2018-09-22T10:52:50.909Z,17.4
2018-09-22T10:54:50.236Z,17.5
2018-09-22T10:56:50.431Z,17.5
2018-09-22T10:58:50.556Z,17.4
2018-09-22T11:00:50.692Z,17.5
2018-09-22T11:02:49.867Z,17.5
2018-09-22T11:04:50.204Z,17.6
2018-09-22T11:06:50.362Z,17.6
2018-09-22T11:08:50.389Z,17.6
2018-09-22T11:10:50.480Z,17.6
2018-09-22T11:12:50.546Z,17.7
2018-09-22T11:14:50.573Z,17.7
2018-09-22T11:16:49.730Z,17.7
2018-09-22T11:18:49.851Z,17.56
2018-09-22T11:20:49.869Z,17.6
2018-09-22T11:22:49.883Z,17.6
2018-09-22T11:24:50.008Z,17.6
2018-09-22T11:26:50.384Z,17.67
2018-09-22T11:28:50.515Z,17.66
2018-09-22T11:30:50.521Z,17.6
2018-09-22T11:32:50.651Z,17.6
2018-09-22T11:34:49.894Z,17.7
2018-09-22T11:36:50.301Z,17.54
2018-09-22T11:38:50.298Z,17.56
2018-09-22T11:40:50.316Z,17.6
2018-09-22T11:42:50.400Z,17.7
2018-09-22T11:44:50.447Z,17.8
2018-09-22T11:46:50.648Z,17.8
2018-09-22T11:48:49.852Z,17.8
2018-09-22T11:50:49.850Z,17.8
2018-09-22T11:52:49.952Z,17.51
2018-09-22T11:54:49.910Z,17.18
2018-09-22T11:56:50.220Z,17.23
2018-09-22T11:58:50.288Z,17.36
2018-09-22T12:00:50.305Z,17.7
2018-09-22T12:02:50.295Z,17.7
2018-09-22T12:04:50.683Z,17.7
2018-09-22T12:06:50.906Z,17.7
2018-09-22T12:08:49.994Z,17.7
2018-09-22T12:10:49.999Z,17.8
2018-09-22T12:12:50.015Z,17.8
2018-09-22T12:14:50.056Z,17.8
2018-09-22T12:16:50.232Z,17.9
2018-09-22T12:18:50.286Z,17.9
2018-09-22T12:20:50.297Z,18.0
2018-09-22T12:22:50.334Z,18.1
2018-09-22T12:24:50.332Z,18.1
2018-09-22T12:26:50.531Z,18.2
2018-09-22T12:28:50.609Z,18.2
2018-09-22T12:30:49.976Z,18.3
2018-09-22T12:32:50.287Z,18.3
2018-09-22T12:34:50.618Z,18.3
2018-09-22T12:36:49.858Z,18.3
2018-09-22T12:38:49.862Z,18.2
2018-09-22T12:40:49.840Z,18.2
2018-09-22T12:42:49.997Z,18.2
2018-09-22T12:44:50.127Z,18.2
2018-09-22T12:46:50.294Z,18.2
2018-09-22T12:48:50.256Z,18.2
2018-09-22T12:50:50.246Z,18.3
2018-09-22T12:52:50.253Z,18.3
2018-09-22T12:54:50.194Z,18.3
2018-09-22T12:56:50.417Z,18.4
2018-09-22T12:58:50.437Z,18.4
2018-09-22T13:00:50.506Z,18.3
2018-09-22T13:02:50.516Z,18.2
2018-09-22T13:04:49.801Z,18.2
2018-09-22T13:06:49.973Z,18.2
2018-09-22T13:08:50.001Z,18.1
2018-09-22T13:10:49.979Z,18.1
2018-09-22T13:12:49.985Z,18.0
2018-09-22T13:14:49.945Z,18.0
2018-09-22T13:16:50.234Z,18.0
2018-09-22T13:18:50.241Z,18.0
2018-09-22T13:20:50.221Z,18.0
2018-09-22T13:22:50.201Z,18.0
2018-09-22T13:24:50.194Z,18.0
2018-09-22T13:26:50.639Z,18.0
2018-09-22T13:28:49.923Z,18.0
2018-09-22T13:30:49.883Z,18.0
2018-09-22T13:32:49.983Z,18.0
2018-09-22T13:34:50.317Z,18.0
2018-09-22T13:36:50.528Z,18.0
2018-09-22T13:38:50.448Z,18.0
2018-09-22T13:40:50.482Z,18.0
2018-09-22T13:42:50.409Z,18.0
2018-09-22T13:44:50.422Z,18.0
2018-09-22T13:46:50.687Z,18.0
2018-09-22T13:48:49.861Z,18.0
2018-09-22T13:50:50.219Z,18.2
2018-09-22T13:52:50.374Z,18.2
2018-09-22T13:54:50.589Z,18.2
2018-09-22T13:56:49.709Z,18.2
2018-09-22T13:58:49.760Z,18.2
2018-09-22T14:00:49.840Z,18.3
2018-09-22T14:02:49.989Z,18.3
2018-09-22T14:04:50.236Z,18.3
2018-09-22T14:06:50.416Z,18.3
2018-09-22T14:08:50.383Z,18.4
2018-09-22T14:10:50.434Z,18.4
2018-09-22T14:12:50.353Z,18.4
2018-09-22T14:14:50.398Z,18.5
2018-09-22T14:16:50.571Z,18.5
2018-09-22T14:18:50.572Z,18.5
2018-09-22T14:20:50.556Z,18.6
2018-09-22T14:22:50.609Z,18.6
2018-09-22T14:24:50.538Z,18.6
2018-09-22T14:26:49.856Z,18.6
2018-09-22T14:28:50.299Z,18.6
2018-09-22T14:30:50.304Z,18.6
2018-09-22T14:32:50.481Z,18.7
2018-09-22T14:34:49.936Z,18.55
2018-09-22T14:36:50.192Z,18.51
2018-09-22T14:38:50.235Z,18.64
2018-09-22T14:40:50.226Z,18.63
2018-09-22T14:42:50.408Z,18.41
2018-09-22T14:44:50.523Z,18.17
2018-09-22T14:46:49.765Z,18.12
2018-09-22T14:48:49.839Z,18.41
2018-09-22T14:50:49.874Z,18.57
2018-09-22T14:52:49.985Z,18.56
2018-09-22T14:54:50.020Z,18.54
2018-09-22T14:56:50.186Z,18.57
2018-09-22T14:58:50.229Z,18.60
2018-09-22T15:00:50.239Z,18.59
2018-09-22T15:02:50.335Z,18.59
2018-09-22T15:04:50.672Z,18.68
2018-09-22T15:06:49.939Z,18.52
2018-09-22T15:08:49.983Z,18.41
2018-09-22T15:10:50.162Z,18.36
2018-09-22T15:12:50.241Z,18.69
2018-09-22T15:14:50.273Z,18.8
2018-09-22T15:16:50.553Z,18.8
2018-09-22T15:18:50.542Z,18.8
2018-09-22T15:20:49.758Z,18.60
2018-09-22T15:22:49.974Z,18.47
2018-09-22T15:24:50.007Z,18.54
2018-09-22T15:26:50.083Z,18.61
2018-09-22T15:28:50.064Z,18.8
2018-09-22T15:30:50.082Z,18.8
2018-09-22T15:32:50.028Z,18.77
2018-09-22T15:34:50.282Z,18.72
2018-09-22T15:36:50.678Z,18.63
2018-09-22T15:38:49.786Z,18.49
2018-09-22T15:40:49.842Z,18.28
2018-09-22T15:42:49.902Z,18.10
2018-09-22T15:44:50.020Z,18.01
2018-09-22T15:46:50.173Z,17.84
2018-09-22T15:48:50.275Z,17.80
2018-09-22T15:50:50.361Z,17.76
2018-09-22T15:52:50.298Z,17.60
2018-09-22T15:54:50.359Z,17.60
2018-09-22T15:56:49.890Z,17.46
2018-09-22T15:58:50.140Z,17.44
2018-09-22T16:00:50.546Z,17.54
2018-09-22T16:02:49.759Z,17.54
2018-09-22T16:04:50.126Z,17.45
2018-09-22T16:06:50.334Z,17.31
2018-09-22T16:08:50.735Z,17.23
2018-09-22T16:10:49.894Z,17.16
2018-09-22T16:12:49.866Z,17.14
2018-09-22T16:14:49.871Z,17.11
2018-09-22T16:16:50.284Z,17.05
2018-09-22T16:18:50.283Z,17.02
2018-09-22T16:20:50.221Z,17.04
2018-09-22T16:22:50.259Z,16.92
2018-09-22T16:24:50.241Z,16.86
2018-09-22T16:26:50.509Z,16.83
2018-09-22T16:28:50.618Z,16.83
2018-09-22T16:30:50.632Z,16.84
2018-09-22T16:32:49.761Z,16.82
2018-09-22T16:34:50.069Z,16.73
2018-09-22T16:36:50.247Z,16.72
2018-09-22T16:38:50.282Z,16.66
2018-09-22T16:40:50.332Z,16.63
2018-09-22T16:42:50.337Z,16.60
2018-09-22T16:44:50.432Z,16.56
2018-09-22T16:46:50.579Z,16.54
2018-09-22T16:48:50.721Z,16.50
2018-09-22T16:50:49.838Z,16.48
2018-09-22T16:52:49.956Z,16.48
2018-09-22T16:54:49.946Z,16.46
2018-09-22T16:56:50.242Z,16.43
2018-09-22T16:58:50.271Z,16.40
2018-09-22T17:00:50.304Z,16.36
2018-09-22T17:02:50.292Z,16.33
2018-09-22T17:04:49.711Z,16.30
2018-09-22T17:06:49.978Z,16.29
2018-09-22T17:08:50.037Z,16.26
2018-09-22T17:10:50.130Z,16.23
2018-09-22T17:12:50.109Z,16.21
2018-09-22T17:14:50.173Z,16.16
2018-09-22T17:16:50.467Z,16.14
2018-09-22T17:18:50.510Z,16.12
2018-09-22T17:20:50.565Z,16.10
2018-09-22T17:22:49.762Z,16.08
2018-09-22T17:24:49.779Z,16.06
2018-09-22T17:26:49.990Z,16.06
2018-09-22T17:28:50.330Z,16.05
2018-09-22T17:30:50.321Z,16.03
2018-09-22T17:32:50.369Z,15.99
2018-09-22T17:34:49.847Z,15.99
2018-09-22T17:36:50.128Z,15.94
2018-09-22T17:38:50.137Z,15.92
2018-09-22T17:40:50.271Z,15.91
2018-09-22T17:42:50.378Z,15.89
2018-09-22T17:44:50.445Z,15.89
2018-09-22T17:46:50.602Z,15.88
2018-09-22T17:48:49.746Z,15.88
2018-09-22T17:50:49.706Z,15.86
2018-09-22T17:52:49.874Z,15.84
2018-09-22T17:54:49.888Z,15.83
2018-09-22T17:56:50.119Z,15.81
2018-09-22T17:58:50.088Z,15.80
2018-09-22T18:00:50.082Z,15.77
2018-09-22T18:02:50.014Z,15.75
2018-09-22T18:04:50.237Z,15.74
2018-09-22T18:06:50.467Z,15.73
2018-09-22T18:08:50.429Z,15.73
2018-09-22T18:10:50.361Z,15.72
2018-09-22T18:12:50.332Z,15.71
2018-09-22T18:14:50.382Z,15.70
2018-09-22T18:16:51.075Z,15.68
2018-09-22T18:18:50.371Z,15.67
2018-09-22T18:20:50.388Z,15.67
2018-09-22T18:22:49.984Z,15.64
2018-09-22T18:24:49.961Z,15.63
2018-09-22T18:26:50.213Z,15.62
2018-09-22T18:28:50.209Z,15.61
2018-09-22T18:30:50.211Z,15.58
2018-09-22T18:32:50.192Z,15.57
2018-09-22T18:34:49.713Z,15.56
2018-09-22T18:36:50.002Z,15.55
2018-09-22T18:38:49.992Z,15.53
2018-09-22T18:40:50.060Z,15.50
2018-09-22T18:42:50.021Z,15.50
2018-09-22T18:44:50.004Z,15.47
2018-09-22T18:46:50.111Z,15.46
2018-09-22T18:48:50.054Z,15.45
2018-09-22T18:50:50.043Z,15.44
2018-09-22T18:52:50.052Z,15.43
2018-09-22T18:54:50.041Z,15.40
2018-09-22T18:56:50.232Z,15.35
2018-09-22T18:58:50.275Z,15.23
2018-09-22T19:00:50.309Z,15.11
2018-09-22T19:02:50.286Z,15.02
2018-09-22T19:04:49.809Z,14.82
2018-09-22T19:06:49.936Z,14.74
2018-09-22T19:08:49.922Z,14.59
2018-09-22T19:10:50.007Z,14.57
2018-09-22T19:12:50.232Z,14.45
2018-09-22T19:14:50.345Z,14.41
2018-09-22T19:16:50.447Z,14.37
2018-09-22T19:18:50.446Z,14.28
2018-09-22T19:20:50.491Z,14.25
2018-09-22T19:22:50.531Z,14.13
2018-09-22T19:24:50.501Z,14.09
2018-09-22T19:26:49.903Z,14.03
2018-09-22T19:28:49.951Z,14.06
2018-09-22T19:30:50.035Z,14.09
2018-09-22T19:32:50.080Z,14.13
2018-09-22T19:34:50.347Z,14.15
2018-09-22T19:36:50.489Z,14.19
2018-09-22T19:38:50.764Z,14.18
2018-09-22T19:40:50.117Z,14.18
2018-09-22T19:42:50.096Z,14.18
2018-09-22T19:44:50.390Z,14.20
2018-09-22T19:46:49.727Z,14.20
2018-09-22T19:48:49.835Z,14.22
2018-09-22T19:50:50.403Z,14.23
2018-09-22T19:52:50.792Z,14.20
2018-09-22T19:54:50.184Z,14.20
2018-09-22T19:56:50.237Z,14.19
2018-09-22T19:58:50.288Z,14.19
2018-09-22T20:00:50.315Z,14.18
2018-09-22T20:02:50.355Z,14.17
2018-09-22T20:04:50.704Z,14.14
2018-09-22T20:06:49.859Z,14.13
2018-09-22T20:08:50.009Z,14.13
2018-09-22T20:10:50.034Z,14.12
2018-09-22T20:12:50.014Z,14.11
2018-09-22T20:14:50.094Z,14.10
2018-09-22T20:16:50.262Z,14.10
2018-09-22T20:18:50.272Z,14.10
2018-09-22T20:20:50.275Z,14.09
2018-09-22T20:22:50.311Z,14.07
2018-09-22T20:24:50.256Z,14.08
2018-09-22T20:26:50.541Z,14.07
2018-09-22T20:28:50.548Z,14.07
2018-09-22T20:30:49.731Z,14.05
2018-09-22T20:32:49.710Z,14.05
2018-09-22T20:34:50.111Z,14.03
2018-09-22T20:36:50.305Z,14.03
2018-09-22T20:38:50.276Z,14.02
2018-09-22T20:40:50.313Z,14.01
2018-09-22T20:42:50.353Z,14.01
2018-09-22T20:44:50.451Z,14.01
2018-09-22T20:46:50.598Z,14.00
2018-09-22T20:48:50.579Z,13.99
2018-09-22T20:50:50.697Z,13.97
2018-09-22T20:52:49.730Z,13.96
2018-09-22T20:54:49.750Z,13.94
2018-09-22T20:56:50.216Z,13.92
2018-09-22T20:58:50.331Z,13.92
2018-09-22T21:00:50.332Z,13.90
2018-09-22T21:02:50.428Z,13.90
2018-09-22T21:04:49.837Z,13.90
2018-09-22T21:06:50.208Z,13.90
2018-09-22T21:08:50.197Z,13.87
2018-09-22T21:10:50.184Z,13.85
2018-09-22T21:12:50.177Z,13.84
2018-09-22T21:14:50.162Z,13.83
2018-09-22T21:16:50.273Z,13.83
2018-09-22T21:18:50.483Z,13.81
2018-09-22T21:20:49.967Z,13.81
2018-09-22T21:22:49.989Z,13.80
2018-09-22T21:24:49.973Z,13.79
2018-09-22T21:26:50.194Z,13.80
2018-09-22T21:28:50.259Z,13.80
2018-09-22T21:30:50.615Z,13.79
2018-09-22T21:32:49.965Z,13.78
2018-09-22T21:34:50.271Z,13.77
2018-09-22T21:36:50.689Z,13.78
2018-09-22T21:38:49.784Z,13.78
2018-09-22T21:40:49.852Z,13.74
2018-09-22T21:42:49.900Z,13.71
2018-09-22T21:44:50.008Z,13.69
2018-09-22T21:46:50.169Z,13.68
2018-09-22T21:48:50.192Z,13.67
2018-09-22T21:50:50.308Z,13.65
2018-09-22T21:52:50.329Z,13.64
2018-09-22T21:54:50.792Z,13.62
2018-09-22T21:56:50.198Z,13.61
2018-09-22T21:58:50.166Z,13.60
2018-09-22T22:00:50.138Z,13.59
2018-09-22T22:02:50.215Z,13.58
2018-09-22T22:04:50.569Z,13.57
2018-09-22T22:06:49.847Z,13.57
2018-09-22T22:08:49.872Z,13.56
2018-09-22T22:10:50.033Z,13.56
2018-09-22T22:12:50.086Z,13.52
2018-09-22T22:14:50.119Z,13.48
2018-09-22T22:16:50.342Z,13.48
2018-09-22T22:18:50.402Z,13.41
2018-09-22T22:20:50.455Z,13.37
2018-09-22T22:22:50.525Z,13.35
2018-09-22T22:24:50.575Z,13.33
2018-09-22T22:26:49.824Z,13.31
2018-09-22T22:28:49.849Z,13.24
2018-09-22T22:30:49.956Z,13.21
2018-09-22T22:32:49.990Z,13.14
2018-09-22T22:34:50.363Z,13.11
2018-09-22T22:36:50.649Z,13.03
2018-09-22T22:38:50.691Z,12.98
2018-09-22T22:40:49.799Z,12.95
2018-09-22T22:42:50.057Z,12.91
2018-09-22T22:44:50.006Z,12.91
2018-09-22T22:46:50.192Z,12.88
2018-09-22T22:48:50.312Z,12.88
2018-09-22T22:50:50.376Z,12.89
2018-09-22T22:52:50.340Z,12.91
2018-09-22T22:54:50.411Z,12.91
2018-09-22T22:56:50.690Z,12.92
2018-09-22T22:58:49.735Z,12.92
2018-09-22T23:00:49.772Z,12.90
2018-09-22T23:02:49.818Z,12.88
2018-09-22T23:04:50.202Z,12.81
2018-09-22T23:06:50.513Z,12.80
2018-09-22T23:08:50.669Z,12.80
2018-09-22T23:10:49.821Z,12.79
2018-09-22T23:12:49.971Z,12.78
2018-09-22T23:14:49.961Z,12.78
2018-09-22T23:16:50.173Z,12.79
2018-09-22T23:18:50.237Z,12.78
2018-09-22T23:20:50.342Z,12.78
2018-09-22T23:22:50.352Z,12.78
2018-09-22T23:24:50.390Z,12.78
2018-09-22T23:26:50.543Z,12.80
2018-09-22T23:28:50.569Z,12.80
2018-09-22T23:30:50.623Z,12.79
2018-09-22T23:32:50.681Z,12.79
2018-09-22T23:34:50.179Z,12.76
2018-09-22T23:36:50.333Z,12.75
2018-09-22T23:38:50.313Z,12.73
2018-09-22T23:40:50.347Z,12.73
2018-09-22T23:42:50.273Z,12.69
2018-09-22T23:44:50.315Z,12.69
2018-09-22T23:46:50.526Z,12.67
2018-09-22T23:48:50.535Z,12.66
2018-09-22T23:50:50.623Z,12.63
2018-09-22T23:52:50.565Z,12.60
2018-09-22T23:54:49.706Z,12.55
2018-09-22T23:56:50.287Z,12.50
2018-09-22T23:58:50.312Z,12.48
